Flight Track Log - Related Links

Times and Time Zones

All times are in EDT time to prevent confusion due to time zone crossing. See the AAY829 flight status page for this flight to view local times or setup timezone preferences in your user account.

Time Position Orientation Groundspeed Altitude Reporting Facility
EDT Latitude Longitude Course Direction KTS MPH feet Rate Location/Type
Mon 02:40:56 PM 34.8858 -82.1550 180° South 252 290 3,100  Level Atlanta Center
Mon 02:41:56 PM 34.8214 -82.1589 183° South 280 322 5,700 2,750 Climbing Atlanta Center
Mon 02:42:56 PM 34.7442 -82.1681 186° South 280 322 8,600 2,800 Climbing Atlanta Center
Mon 02:43:56 PM 34.6506 -82.1803 186° South 298 343 11,300 2,350 Climbing Atlanta Center
Mon 02:44:56 PM 34.5547 -82.1900 185° South 322 371 13,300 2,100 Climbing Atlanta Center
Mon 02:45:00 PM 34.2790 -82.2632 180° South  Level Estimated
Mon 02:45:56 PM 34.4567 -82.1947 182° South 342 394 15,500  Level Atlanta Center
Mon 02:51:25 PM 33.8608 -82.2511 184° South 390 449 23,600 1,492 Climbing FlightAware ADS-B (EFHN)
Mon 02:52:30 PM 33.7338 -82.2629 184° South 390 449 25,300 1,311 Climbing FlightAware ADS-B (EFHN)
Mon 02:53:56 PM 33.5833 -82.2758 184° South 425 489 26,900 1,151 Climbing Atlanta Center
Mon 02:54:56 PM 33.4625 -82.2883 185° South 425 489 28,100 1,350 Climbing Atlanta Center
Mon 02:55:56 PM 33.3372 -82.3008 185° South 425 489 29,600 1,000 Climbing Atlanta Center
Mon 02:56:56 PM 33.2228 -82.3131 185° South 430 495 30,100 850 Climbing Atlanta Center
Mon 02:57:56 PM 33.1017 -82.3228 184° South 441 507 31,300 1,250 Climbing Atlanta Center
Mon 02:58:56 PM 32.9789 -82.3328 184° South 446 513 32,600 1,200 Climbing Atlanta Center
Mon 02:59:56 PM 32.8619 -82.3450 185° South 435 501 33,700 1,100 Climbing Atlanta Center
Mon 03:00:56 PM 32.7433 -82.3544 184° South 435 501 34,800 754 Climbing Atlanta Center
Mon 03:03:07 PM 32.4850 -82.3778 184° South 425 489 36,100 408 Climbing Jacksonville Center
Mon 03:04:07 PM 32.3556 -82.3883 184° South 425 489 36,100 -50 Level Jacksonville Center
Mon 03:05:07 PM 32.2367 -82.3989 184° South 425 489 36,000 -50 Descending Jacksonville Center
Mon 03:06:07 PM 32.1217 -82.4094 184° South 419 482 36,000  Level Jacksonville Center
Mon 03:07:07 PM 32.0028 -82.4197 184° South 424 488 36,000 50 Level Jacksonville Center
Mon 03:08:07 PM 31.8817 -82.4278 183° South 424 488 36,100 50 Climbing Jacksonville Center
Mon 03:09:07 PM 31.7628 -82.4406 185° South 429 494 36,100  Level Jacksonville Center
Mon 03:10:07 PM 31.6458 -82.4508 184° South 429 494 36,100 -50 Level Jacksonville Center
Mon 03:11:07 PM 31.5269 -82.4636 185° South 429 494 36,000  Descending Jacksonville Center
Mon 03:12:07 PM 31.4081 -82.4714 183° South 424 488 36,100 14 Climbing Jacksonville Center
Mon 03:18:10 PM 30.6970 -82.5359 184° South 427 491 36,100  Level FlightAware ADS-B
Mon 03:19:29 PM 30.5426 -82.5309 160° South 437 503 36,100  Level FlightAware ADS-B
Mon 03:19:45 PM 30.5112 -82.5133 147° Southeast 442 509 36,100 -288 Level FlightAware ADS-B
Mon 03:21:34 PM 30.3178 -82.4098 177° South 427 491 35,500 -446 Descending FlightAware ADS-B
Mon 03:22:13 PM 30.2390 -82.4042 176° South 443 510 35,000 -1,030 Descending FlightAware ADS-B
Mon 03:23:13 PM 30.1171 -82.3954 177° South 451 519 33,800 -1,140 Descending FlightAware ADS-B
Mon 03:23:53 PM 30.0347 -82.3895 177° South 446 513 33,100 -1,259 Descending FlightAware ADS-B
Mon 03:24:34 PM 29.9566 -82.3842 177° South 445 512 32,100 -1,630 Descending FlightAware ADS-B
Mon 03:25:14 PM 29.8642 -82.3776 177° South 444 511 30,900 -1,747 Descending FlightAware ADS-B
Mon 03:25:53 PM 29.7851 -82.3722 177° South 439 505 29,800 -1,800 Descending FlightAware ADS-B
Mon 03:26:34 PM 29.7060 -82.3665 177° South 433 498 28,500 -1,832 Descending FlightAware ADS-B
Mon 03:27:28 PM 29.5932 -82.3586 177° South 429 494 26,900 -1,515 Descending FlightAware ADS-B
Mon 03:28:13 PM 29.5093 -82.3502 173° South 423 487 26,000 -621 Descending FlightAware ADS-B
Mon 03:28:55 PM 29.4229 -82.3387 174° South 423 487 26,000 -918 Level FlightAware ADS-B
Mon 03:29:51 PM 29.3148 -82.3257 174° South 414 476 24,500 -2,069 Descending FlightAware ADS-B
Mon 03:30:22 PM 29.2559 -82.3187 174° South 404 465 23,000 -3,166 Descending FlightAware ADS-B
Mon 03:32:34 PM 29.0284 -82.2916 174° South 360 414 15,900 -2,567 Descending FlightAware ADS-B
Mon 03:33:57 PM 28.8951 -82.2759 174° South 318 366 13,800 -1,132 Descending FlightAware ADS-B
Mon 03:35:13 PM 28.7858 -82.2629 174° South 308 354 12,900 -605 Descending FlightAware ADS-B
Mon 03:35:56 PM 28.7406 -82.2581 174° South 309 356 12,600 -824 Descending Miami Center
Mon 03:36:55 PM 28.6500 -82.3000 202° Southwest 330 380 11,500 -1,056 Descending Tampa TRACON
Mon 03:38:01 PM 28.6000 -82.3833 236° Southwest 295 339 10,400 -750 Descending Tampa TRACON
Mon 03:38:55 PM 28.5500 -82.4500 230° Southwest 281 323 10,000 -247 Descending Tampa TRACON
Mon 03:39:38 PM 28.5167 -82.5000 233° Southwest 283 326 10,000  Level Tampa TRACON
Mon 03:40:38 PM 28.4500 -82.5333 204° Southwest 293 337 10,000  Level Tampa TRACON
Mon 03:41:44 PM 28.3667 -82.5833 208° Southwest 291 335 10,000 -524 Level Tampa TRACON
Mon 03:42:44 PM 28.2833 -82.6167 199° South 291 335 8,900 -1,200 Descending Tampa TRACON
Mon 03:43:44 PM 28.2167 -82.6500 204° Southwest 284 327 7,600 -1,429 Descending Tampa TRACON
Mon 03:44:50 PM 28.1333 -82.7000 208° Southwest 273 314 5,900 -1,650 Descending Tampa TRACON
Mon 03:45:44 PM 28.0833 -82.7333 210° Southwest 270 311 4,300 -1,632 Descending Tampa TRACON
Mon 03:46:44 PM 28.0167 -82.7500 192° South 271 312 2,800 -850 Descending Tampa TRACON
Mon 03:47:44 PM 27.9333 -82.7500 180° South 251 289 2,600 -300 Descending Tampa TRACON
Mon 03:48:44 PM 27.8667 -82.7333 168° South 213 245 2,200 -550 Descending Tampa TRACON
Mon 03:49:44 PM 27.8333 -82.7000 139° Southeast 178 205 1,500 -762 Descending Tampa TRACON
Mon 03:50:50 PM 27.8833 -82.6833 16° North 139 160 600 -818 Descending Tampa TRACON
Mon 03:53:00 PM 27.9000 -82.6833 53° Northeast  Level FlightAware Approximate

Login

Don't have an account? Register now (free) for customized features, flight alerts, and more!